PWSweather.com
Personal Weather Stations
Station Observations
WISCHPK61
Green Bay Schmitt Park, Green Bay, WI 54311

Green Bay Schmitt ParkGreen Bay, WI 54311

Lat: 44.514277, Lon: -87.935067

Elevation: 735

Station Type: Acu Rite Pro Weather Center model 02032C

http://greenbayweathercam.com

High Low Average
Temperature 94.7°F34.8°C 55.0°F12.8°C 72.0°F22.2°C
Dew Point 94.4°F34.7°C 51.0°F10.6°C 71.2°F21.8°C
Winds 3.5 mph 5.6 kmh Calm Calm Calm SCalm S
Wind Gusts 5.8 mph9.3 kmh -- --
Humidity 99% 65% 97%
Pressure 29.33 in993.2 mb 29.24 in990.2 mb -
Precipitation 0.00 in0.0 mm - -
Hour Temp Dew Point Humidity Winds Wind Gusts Pressure Precip Precip Rate Daily Precip Total
12:00 AM 60.6°F15.9°C 60.3°F15.7°C 99% Calm Calm -- 29.24 in990.2 mb - 0.00 in0.0 mm 0.00 in0.0 mm
01:00 AM 59.5°F15.3°C 59.2°F15.1°C 99% Calm Calm -- 29.24 in990.2 mb - 0.00 in0.0 mm 0.00 in0.0 mm
02:00 AM 58.5°F14.7°C 58.2°F14.6°C 99% Calm Calm -- 29.24 in990.2 mb - 0.00 in0.0 mm 0.00 in0.0 mm
03:00 AM 57.9°F14.4°C 57.3°F14.1°C 98% Calm Calm -- 29.25 in990.5 mb - 0.00 in0.0 mm 0.00 in0.0 mm
04:00 AM 56.8°F13.8°C 56.5°F13.6°C 99% Calm Calm -- 29.26 in990.9 mb - 0.00 in0.0 mm 0.00 in0.0 mm
05:00 AM 55.3°F12.9°C 55.0°F12.8°C 99% Calm Calm -- 29.27 in991.2 mb - 0.00 in0.0 mm 0.00 in0.0 mm
06:00 AM 55.0°F12.8°C 54.2°F12.3°C 97% Calm Calm -- 29.29 in991.9 mb - 0.00 in0.0 mm 0.00 in0.0 mm
07:00 AM 57.6°F14.2°C 57.3°F14.1°C 99% Calm Calm -- 29.30 in992.2 mb - 0.00 in0.0 mm 0.00 in0.0 mm
08:00 AM 62.2°F16.8°C 61.9°F16.6°C 99% Calm Calm -- 29.31 in992.6 mb - 0.00 in0.0 mm 0.00 in0.0 mm
09:00 AM 69.9°F21.1°C 69.7°F20.9°C 99% Calm Calm -- 29.32 in992.9 mb - 0.00 in0.0 mm 0.00 in0.0 mm
10:00 AM 76.7°F24.8°C 76.4°F24.7°C 99% Calm Calm -- 29.32 in992.9 mb - 0.00 in0.0 mm 0.00 in0.0 mm
11:00 AM 81.1°F27.3°C 80.8°F27.1°C 99% Calm Calm -- 29.32 in992.9 mb - 0.00 in0.0 mm 0.00 in0.0 mm
12:00 PM 86.2°F30.1°C 85.9°F29.9°C 99% Calm Calm -- 29.33 in993.2 mb - 0.00 in0.0 mm 0.00 in0.0 mm
01:00 PM 91.4°F33.0°C 91.1°F32.8°C 99% Calm Calm -- 29.32 in992.9 mb - 0.00 in0.0 mm 0.00 in0.0 mm
02:00 PM 94.7°F34.8°C 94.4°F34.7°C 99% Calm Calm -- 29.31 in992.6 mb - 0.00 in0.0 mm 0.00 in0.0 mm
03:00 PM 94.0°F34.4°C 93.7°F34.3°C 99% 2.3 mph W3.7 kmh W 3.5 mph5.6 kmh 29.31 in992.6 mb - 0.00 in0.0 mm 0.00 in0.0 mm
04:00 PM 89.1°F31.7°C 88.7°F31.5°C 99% 3.5 mph SW5.6 kmh SW 5.8 mph9.3 kmh 29.30 in992.2 mb - 0.00 in0.0 mm 0.00 in0.0 mm
05:00 PM 85.1°F29.5°C 84.8°F29.3°C 99% Calm Calm -- 29.29 in991.9 mb - 0.00 in0.0 mm 0.00 in0.0 mm
06:00 PM 81.6°F27.6°C 81.3°F27.4°C 99% Calm Calm -- 29.29 in991.9 mb - 0.00 in0.0 mm 0.00 in0.0 mm
07:00 PM 79.0°F26.1°C 78.7°F25.9°C 99% Calm Calm -- 29.29 in991.9 mb - 0.00 in0.0 mm 0.00 in0.0 mm
08:00 PM 74.9°F23.8°C 74.6°F23.7°C 99% Calm Calm -- 29.29 in991.9 mb - 0.00 in0.0 mm 0.00 in0.0 mm
09:00 PM 70.7°F21.5°C 70.4°F21.3°C 99% Calm Calm -- 29.30 in992.2 mb - 0.00 in0.0 mm 0.00 in0.0 mm
10:00 PM 66.2°F19.0°C 65.9°F18.8°C 99% Calm Calm -- 29.32 in992.9 mb - 0.00 in0.0 mm 0.00 in0.0 mm
11:00 PM 63.0°F17.2°C 51.0°F10.6°C 65% Calm Calm -- 29.33 in993.2 mb - 0.00 in0.0 mm 0.00 in0.0 mm